createdAt,value
2019-05-14T00:01:03.171Z,10.00
2019-05-14T00:03:32.225Z,9.80
2019-05-14T00:06:02.280Z,9.90
2019-05-14T00:08:31.637Z,9.60
2019-05-14T00:11:01.518Z,9.50
2019-05-14T00:13:34.140Z,9.70
2019-05-14T00:16:02.558Z,9.70
2019-05-14T00:18:31.747Z,9.70
2019-05-14T00:21:01.894Z,9.80
2019-05-14T00:23:31.894Z,9.70
2019-05-14T00:26:01.889Z,9.80
2019-05-14T00:28:31.808Z,9.70
2019-05-14T00:31:02.865Z,9.70
2019-05-14T00:33:31.866Z,9.70
2019-05-14T00:36:02.052Z,9.70
2019-05-14T00:38:31.632Z,9.80
2019-05-14T00:41:01.935Z,9.80
2019-05-14T00:43:32.263Z,9.80
2019-05-14T00:46:01.895Z,9.90
2019-05-14T00:48:31.873Z,10.10
2019-05-14T00:51:02.202Z,10.00
2019-05-14T00:53:32.183Z,10.00
2019-05-14T00:56:02.162Z,9.90
2019-05-14T00:58:31.926Z,10.00
2019-05-14T01:01:01.597Z,9.90
2019-05-14T01:03:32.416Z,9.80
2019-05-14T01:06:03.010Z,9.70
2019-05-14T01:08:32.194Z,9.90
2019-05-14T01:11:01.728Z,9.90
2019-05-14T01:13:31.241Z,9.80
2019-05-14T01:16:01.533Z,9.70
2019-05-14T01:18:32.243Z,9.70
2019-05-14T01:21:01.537Z,9.70
2019-05-14T01:23:32.330Z,9.70
2019-05-14T01:26:02.493Z,9.70
2019-05-14T01:28:32.247Z,9.70
2019-05-14T01:31:01.774Z,9.90
2019-05-14T01:33:31.839Z,10.00
2019-05-14T01:36:02.043Z,10.00
2019-05-14T01:38:31.671Z,9.90
2019-05-14T01:41:01.885Z,9.80
2019-05-14T01:43:31.620Z,9.90
2019-05-14T01:46:01.941Z,9.90
2019-05-14T01:48:31.445Z,9.80
2019-05-14T01:51:01.626Z,9.80
2019-05-14T01:53:31.286Z,9.70
2019-05-14T01:56:01.665Z,9.70
2019-05-14T01:58:31.271Z,9.60
2019-05-14T02:01:02.092Z,9.60
2019-05-14T02:03:32.349Z,9.50
2019-05-14T02:06:01.721Z,9.50
2019-05-14T02:08:32.243Z,9.40
2019-05-14T02:11:01.869Z,9.30
2019-05-14T02:13:32.217Z,9.30
2019-05-14T02:16:02.256Z,9.20
2019-05-14T02:18:31.825Z,9.00
2019-05-14T02:21:01.563Z,8.80
2019-05-14T02:23:31.966Z,8.70
2019-05-14T02:26:02.524Z,8.70
2019-05-14T02:28:31.883Z,8.50
2019-05-14T02:31:03.336Z,8.40
2019-05-14T02:33:31.622Z,8.20
2019-05-14T02:36:00.602Z,8.20
2019-05-14T02:38:30.181Z,8.10
2019-05-14T02:41:00.220Z,8.00
2019-05-14T02:43:29.717Z,8.00
2019-05-14T02:46:10.775Z,7.90
2019-05-14T02:48:29.737Z,7.90
2019-05-14T02:50:59.796Z,7.80
2019-05-14T02:53:29.906Z,7.80
2019-05-14T02:55:59.677Z,7.70
2019-05-14T02:58:29.820Z,7.60
2019-05-14T03:01:00.404Z,7.40
2019-05-14T03:03:30.133Z,7.30
2019-05-14T03:06:00.320Z,7.10
2019-05-14T03:08:30.669Z,7.20
2019-05-14T03:11:00.474Z,7.20
2019-05-14T03:13:29.975Z,7.10
2019-05-14T03:15:59.644Z,6.90
2019-05-14T03:18:29.836Z,6.90
2019-05-14T03:21:00.842Z,7.00
2019-05-14T03:23:30.423Z,6.80
2019-05-14T03:26:00.703Z,6.80
2019-05-14T03:28:30.498Z,6.70
2019-05-14T03:31:03.100Z,6.70
2019-05-14T03:33:33.137Z,6.60
2019-05-14T03:36:09.601Z,6.70
2019-05-14T03:38:32.748Z,6.60
2019-05-14T03:41:01.777Z,6.30
2019-05-14T03:43:30.884Z,6.20
2019-05-14T03:45:59.818Z,6.30
2019-05-14T03:48:29.806Z,6.30
2019-05-14T03:51:00.081Z,6.20
2019-05-14T03:53:30.032Z,6.10
2019-05-14T03:56:00.189Z,6.10
2019-05-14T03:58:30.292Z,6.10
2019-05-14T04:01:03.587Z,6.30
2019-05-14T04:03:32.721Z,6.20
2019-05-14T04:06:02.819Z,6.30
2019-05-14T04:08:32.676Z,6.50
2019-05-14T04:11:02.415Z,6.50
2019-05-14T04:13:32.948Z,6.70
2019-05-14T04:16:03.469Z,6.90
2019-05-14T04:18:39.847Z,6.90
2019-05-14T04:21:10.021Z,7.00
2019-05-14T04:23:40.499Z,7.10
2019-05-14T04:26:11.106Z,7.30
2019-05-14T04:28:43.045Z,7.50
2019-05-14T04:31:13.066Z,7.70
2019-05-14T04:33:45.714Z,7.70
2019-05-14T04:36:14.761Z,7.70
2019-05-14T04:38:43.802Z,7.70
2019-05-14T04:41:12.833Z,7.80
2019-05-14T04:43:41.966Z,7.90
2019-05-14T04:46:11.094Z,7.90
2019-05-14T04:48:43.702Z,8.00
2019-05-14T04:51:10.938Z,8.00
2019-05-14T04:53:39.860Z,8.10
2019-05-14T04:56:09.974Z,8.20
2019-05-14T04:58:40.866Z,8.20
2019-05-14T05:01:10.320Z,8.20
2019-05-14T05:03:40.246Z,8.30
2019-05-14T05:06:10.018Z,8.30
2019-05-14T05:08:39.876Z,8.30
2019-05-14T05:11:09.499Z,8.50
2019-05-14T05:13:39.825Z,8.50
2019-05-14T05:16:09.991Z,8.60
2019-05-14T05:18:40.219Z,8.60
2019-05-14T05:21:09.425Z,8.60
2019-05-14T05:23:38.911Z,8.80
2019-05-14T05:26:09.255Z,8.80
2019-05-14T05:28:39.155Z,9.00
2019-05-14T05:31:09.290Z,9.00
2019-05-14T05:33:38.744Z,9.20
2019-05-14T05:36:09.491Z,9.50
2019-05-14T05:38:39.553Z,9.90
2019-05-14T05:41:09.194Z,10.20
2019-05-14T05:43:39.316Z,10.60
2019-05-14T05:46:08.817Z,11.40
2019-05-14T05:48:39.593Z,12.10
2019-05-14T05:51:09.092Z,12.60
2019-05-14T05:53:39.287Z,13.50
2019-05-14T05:56:09.116Z,14.40
2019-05-14T05:58:39.723Z,15.10
2019-05-14T06:01:09.811Z,15.50
2019-05-14T06:03:39.538Z,15.90
2019-05-14T06:06:13.584Z,16.60
2019-05-14T06:08:39.240Z,17.10
2019-05-14T06:11:08.553Z,17.40
2019-05-14T06:13:39.084Z,18.00
2019-05-14T06:16:09.576Z,18.60
2019-05-14T06:18:39.454Z,19.20
2019-05-14T06:21:09.147Z,19.80
2019-05-14T06:23:38.729Z,20.30
2019-05-14T06:26:11.427Z,20.90
2019-05-14T06:28:40.884Z,21.00
2019-05-14T06:31:10.122Z,21.50
2019-05-14T06:33:39.645Z,21.90
2019-05-14T06:36:09.794Z,22.50
2019-05-14T06:38:39.055Z,22.60
2019-05-14T06:41:08.455Z,22.90
2019-05-14T06:43:39.203Z,23.40
2019-05-14T06:46:09.000Z,23.70
2019-05-14T06:48:39.605Z,23.90
2019-05-14T06:51:09.040Z,24.20
2019-05-14T06:53:39.218Z,24.60
2019-05-14T06:56:08.700Z,24.80
2019-05-14T06:58:38.938Z,24.90
2019-05-14T07:01:09.619Z,25.00
2019-05-14T07:03:38.918Z,24.80
2019-05-14T07:06:09.072Z,24.60
2019-05-14T07:08:39.296Z,24.60
2019-05-14T07:11:08.769Z,24.90
2019-05-14T07:13:38.573Z,25.40
2019-05-14T07:16:08.946Z,25.00
2019-05-14T07:18:50.617Z,25.30
2019-05-14T07:21:09.028Z,25.90
2019-05-14T07:23:38.640Z,25.80
2019-05-14T07:26:08.409Z,26.30
2019-05-14T07:28:42.221Z,25.80
2019-05-14T07:31:09.791Z,25.20
2019-05-14T07:33:39.140Z,25.70
2019-05-14T07:36:08.796Z,25.90
2019-05-14T07:38:39.253Z,26.10
2019-05-14T07:41:09.249Z,26.10
2019-05-14T07:43:39.289Z,26.10
2019-05-14T07:46:08.747Z,26.40
2019-05-14T07:48:39.297Z,26.20
2019-05-14T07:51:09.130Z,26.30
2019-05-14T07:53:42.073Z,26.10
2019-05-14T07:56:09.498Z,26.70
2019-05-14T07:58:38.879Z,27.00
2019-05-14T08:01:09.500Z,26.90
2019-05-14T08:03:38.641Z,27.60
2019-05-14T08:06:08.272Z,27.50
2019-05-14T08:08:38.516Z,27.60
2019-05-14T08:11:08.661Z,27.30
2019-05-14T08:13:39.072Z,27.60
2019-05-14T08:16:08.947Z,27.90
2019-05-14T08:18:39.612Z,27.70
2019-05-14T08:21:09.181Z,27.40
2019-05-14T08:23:39.193Z,27.30
2019-05-14T08:26:08.586Z,28.40
2019-05-14T08:28:38.279Z,28.70
2019-05-14T08:31:09.481Z,28.80
2019-05-14T08:33:39.768Z,28.60
2019-05-14T08:36:09.148Z,28.50
2019-05-14T08:38:38.461Z,29.00
2019-05-14T08:41:08.448Z,29.00
2019-05-14T08:43:39.707Z,28.70
2019-05-14T08:46:08.541Z,28.30
2019-05-14T08:48:38.850Z,28.80
2019-05-14T08:51:09.120Z,28.80
2019-05-14T08:53:38.894Z,28.30
2019-05-14T08:56:11.755Z,28.20
2019-05-14T08:58:39.083Z,29.00
2019-05-14T09:01:08.449Z,29.40
2019-05-14T09:03:39.385Z,29.50
2019-05-14T09:06:09.219Z,29.70
2019-05-14T09:08:39.225Z,29.60
2019-05-14T09:11:09.831Z,29.40
2019-05-14T09:13:39.211Z,29.30
2019-05-14T09:16:09.202Z,28.60
2019-05-14T09:18:38.875Z,29.20
2019-05-14T09:21:09.753Z,29.20
2019-05-14T09:23:39.316Z,30.30
2019-05-14T09:26:09.668Z,29.50
2019-05-14T09:28:39.369Z,29.40
2019-05-14T09:31:08.798Z,30.30
2019-05-14T09:33:39.017Z,30.80
2019-05-14T09:36:18.641Z,30.80
2019-05-14T09:38:42.245Z,30.40
2019-05-14T09:41:15.042Z,30.90
2019-05-14T09:43:43.441Z,29.70
2019-05-14T09:46:12.458Z,28.00
2019-05-14T09:48:41.489Z,28.70
2019-05-14T09:51:10.514Z,29.00
2019-05-14T09:53:39.563Z,29.10
2019-05-14T09:56:09.269Z,28.10
2019-05-14T09:58:38.877Z,27.50
2019-05-14T10:01:08.695Z,28.00
2019-05-14T10:03:39.130Z,28.20
2019-05-14T10:06:09.830Z,26.30
2019-05-14T10:08:39.268Z,26.50
2019-05-14T10:11:08.443Z,26.60
2019-05-14T10:13:39.376Z,27.50
2019-05-14T10:16:09.438Z,27.50
2019-05-14T10:18:38.750Z,27.90
2019-05-14T10:21:08.638Z,26.60
2019-05-14T10:23:38.894Z,25.70
2019-05-14T10:26:09.068Z,23.70
2019-05-14T10:28:41.188Z,24.00
2019-05-14T10:31:12.796Z,23.10
2019-05-14T10:33:40.209Z,22.10
2019-05-14T10:36:09.370Z,22.70
2019-05-14T10:38:38.951Z,22.80
2019-05-14T10:41:09.027Z,22.70
2019-05-14T10:43:39.180Z,22.80
2019-05-14T10:46:09.240Z,22.00
2019-05-14T10:48:39.592Z,21.00
2019-05-14T10:51:09.820Z,21.10
2019-05-14T10:53:39.201Z,20.90
2019-05-14T10:56:09.873Z,21.40
2019-05-14T10:58:39.011Z,21.80
2019-05-14T11:01:11.240Z,21.90
2019-05-14T11:03:39.004Z,22.00
2019-05-14T11:06:11.403Z,21.00
2019-05-14T11:08:38.981Z,21.30
2019-05-14T11:11:10.723Z,21.40
2019-05-14T11:13:39.498Z,21.10
2019-05-14T11:16:08.803Z,21.20
2019-05-14T11:18:39.811Z,21.00
2019-05-14T11:21:19.784Z,20.90
2019-05-14T11:23:39.677Z,21.30
2019-05-14T11:26:09.313Z,20.80
2019-05-14T11:28:39.550Z,19.90
2019-05-14T11:31:09.314Z,19.60
2019-05-14T11:33:38.989Z,19.70
2019-05-14T11:36:09.278Z,19.80
2019-05-14T11:38:38.648Z,19.50
2019-05-14T11:41:09.641Z,19.60
2019-05-14T11:43:39.802Z,19.30
2019-05-14T11:46:09.236Z,19.00
2019-05-14T11:48:39.320Z,19.20
2019-05-14T11:51:09.147Z,18.80
2019-05-14T11:53:39.429Z,18.80
2019-05-14T11:56:08.908Z,18.80
2019-05-14T11:58:37.987Z,18.80
2019-05-14T12:01:09.197Z,18.60
2019-05-14T12:03:39.479Z,18.40
2019-05-14T12:06:09.756Z,18.30
2019-05-14T12:08:41.848Z,18.20
2019-05-14T12:11:10.040Z,18.00
2019-05-14T12:13:39.584Z,18.40
2019-05-14T12:16:08.778Z,17.90
2019-05-14T12:18:41.834Z,18.00
2019-05-14T12:21:09.094Z,17.80
2019-05-14T12:23:39.369Z,18.00
2019-05-14T12:26:09.554Z,17.90
2019-05-14T12:28:38.984Z,17.70
2019-05-14T12:31:09.296Z,17.70
2019-05-14T12:33:39.621Z,17.70
2019-05-14T12:36:10.477Z,17.80
2019-05-14T12:38:39.893Z,18.00
2019-05-14T12:41:09.415Z,18.20
2019-05-14T12:43:39.813Z,18.10
2019-05-14T12:46:10.746Z,17.90
2019-05-14T12:48:39.962Z,17.60
2019-05-14T12:51:09.327Z,17.50
2019-05-14T12:53:39.500Z,17.10
2019-05-14T12:56:08.984Z,17.20
2019-05-14T12:58:42.861Z,17.40
2019-05-14T13:01:09.381Z,17.40
2019-05-14T13:03:38.434Z,17.30
2019-05-14T13:06:10.149Z,17.60
2019-05-14T13:08:38.668Z,17.10
2019-05-14T13:11:09.563Z,17.10
2019-05-14T13:13:42.665Z,17.40
2019-05-14T13:16:09.759Z,17.30
2019-05-14T13:18:38.998Z,17.50
2019-05-14T13:21:07.959Z,17.70
2019-05-14T13:23:38.303Z,17.40
2019-05-14T13:26:10.563Z,17.50
2019-05-14T13:28:39.857Z,17.90
2019-05-14T13:31:09.349Z,17.70
2019-05-14T13:33:39.307Z,17.40
2019-05-14T13:36:08.661Z,17.50
2019-05-14T13:38:39.802Z,17.80
2019-05-14T13:41:08.806Z,17.70
2019-05-14T13:43:39.071Z,17.70
2019-05-14T13:46:10.378Z,17.10
2019-05-14T13:48:43.168Z,17.10
2019-05-14T13:51:10.330Z,17.00
2019-05-14T13:53:39.408Z,16.90
2019-05-14T13:56:09.389Z,16.90
2019-05-14T13:58:38.577Z,17.10
2019-05-14T14:01:09.946Z,17.10
2019-05-14T14:03:47.882Z,16.80
2019-05-14T14:06:11.039Z,17.00
2019-05-14T14:08:42.278Z,17.20
2019-05-14T14:11:14.853Z,16.90
2019-05-14T14:13:43.841Z,17.00
2019-05-14T14:16:15.184Z,17.00
2019-05-14T14:18:43.537Z,16.90
2019-05-14T14:21:13.673Z,16.80
2019-05-14T14:23:42.731Z,16.60
2019-05-14T14:26:11.821Z,16.80
2019-05-14T14:28:40.748Z,16.80
2019-05-14T14:31:11.029Z,16.90
2019-05-14T14:33:40.339Z,16.90
2019-05-14T14:36:09.477Z,17.10
2019-05-14T14:38:40.116Z,16.90
2019-05-14T14:41:10.275Z,16.60
2019-05-14T14:43:43.117Z,16.70
2019-05-14T14:46:13.964Z,16.60
2019-05-14T14:48:41.431Z,16.40
2019-05-14T14:51:10.469Z,16.60
2019-05-14T14:53:52.420Z,16.70
2019-05-14T14:56:10.336Z,16.90
2019-05-14T14:58:39.413Z,16.70
2019-05-14T15:01:08.996Z,16.70
2019-05-14T15:03:38.336Z,16.50
2019-05-14T15:06:09.690Z,16.60
2019-05-14T15:08:38.924Z,16.70
2019-05-14T15:11:08.733Z,16.60
2019-05-14T15:13:38.999Z,16.40
2019-05-14T15:16:13.379Z,16.60
2019-05-14T15:18:39.145Z,16.80
2019-05-14T15:21:09.812Z,16.70
2019-05-14T15:23:43.272Z,16.90
2019-05-14T15:26:12.109Z,16.70
2019-05-14T15:28:40.559Z,16.60
2019-05-14T15:31:09.541Z,16.80
2019-05-14T15:33:38.614Z,16.90
2019-05-14T15:36:09.076Z,16.90
2019-05-14T15:38:39.611Z,16.50
2019-05-14T15:41:13.257Z,16.60
2019-05-14T15:43:39.718Z,16.70
2019-05-14T15:46:08.961Z,16.60
2019-05-14T15:48:39.496Z,16.80
2019-05-14T15:51:14.376Z,16.50
2019-05-14T15:53:39.583Z,16.40
2019-05-14T15:56:08.697Z,16.40
2019-05-14T15:58:38.941Z,16.50
2019-05-14T16:01:10.051Z,16.30
2019-05-14T16:03:41.686Z,16.30
2019-05-14T16:06:10.417Z,16.40
2019-05-14T16:08:40.217Z,16.50
2019-05-14T16:11:11.420Z,16.50
2019-05-14T16:13:40.538Z,16.60
2019-05-14T16:16:10.696Z,16.40
2019-05-14T16:18:40.018Z,16.40
2019-05-14T16:21:10.491Z,16.20
2019-05-14T16:23:39.864Z,16.10
2019-05-14T16:26:09.066Z,16.10
2019-05-14T16:28:39.500Z,16.20
2019-05-14T16:31:08.863Z,16.20
2019-05-14T16:33:40.484Z,16.20
2019-05-14T16:36:09.008Z,16.00
2019-05-14T16:38:39.407Z,16.10
2019-05-14T16:41:08.941Z,16.10
2019-05-14T16:43:40.047Z,16.20
2019-05-14T16:46:09.570Z,16.10
2019-05-14T16:48:39.699Z,16.10
2019-05-14T16:51:09.225Z,16.10
2019-05-14T16:53:38.418Z,16.10
2019-05-14T16:56:08.115Z,15.60
2019-05-14T16:58:38.568Z,15.50
2019-05-14T17:01:09.527Z,15.60
2019-05-14T17:03:39.623Z,15.30
2019-05-14T17:06:09.243Z,15.30
2019-05-14T17:08:39.451Z,15.30
2019-05-14T17:11:09.054Z,15.30
2019-05-14T17:13:38.423Z,15.20
2019-05-14T17:16:08.515Z,15.30
2019-05-14T17:18:37.818Z,15.40
2019-05-14T17:21:09.268Z,15.50
2019-05-14T17:23:39.216Z,15.50
2019-05-14T17:26:09.053Z,15.40
2019-05-14T17:28:40.579Z,15.30
2019-05-14T17:31:09.085Z,15.30
2019-05-14T17:33:39.432Z,15.10
2019-05-14T17:36:09.498Z,15.10
2019-05-14T17:38:39.366Z,15.10
2019-05-14T17:41:09.401Z,15.00
2019-05-14T17:43:39.515Z,14.70
2019-05-14T17:46:09.753Z,14.70
2019-05-14T17:48:39.887Z,14.70
2019-05-14T17:51:09.518Z,14.50
2019-05-14T17:53:38.919Z,14.50
2019-05-14T17:56:08.592Z,14.50
2019-05-14T17:58:38.381Z,14.40
2019-05-14T18:01:09.017Z,14.40
2019-05-14T18:03:40.109Z,14.10
2019-05-14T18:06:09.412Z,14.10
2019-05-14T18:08:38.601Z,14.00
2019-05-14T18:11:08.812Z,14.00
2019-05-14T18:13:39.330Z,13.90
2019-05-14T18:16:11.482Z,14.00
2019-05-14T18:18:40.533Z,13.90
2019-05-14T18:21:09.640Z,13.80
2019-05-14T18:23:41.896Z,13.60
2019-05-14T18:26:09.506Z,13.50
2019-05-14T18:28:39.377Z,13.50
2019-05-14T18:31:09.393Z,13.40
2019-05-14T18:33:40.008Z,13.40
2019-05-14T18:36:09.390Z,13.40
2019-05-14T18:38:38.963Z,13.20
2019-05-14T18:41:08.712Z,13.10
2019-05-14T18:43:38.057Z,13.20
2019-05-14T18:46:08.480Z,13.20
2019-05-14T18:48:37.778Z,13.10
2019-05-14T18:51:08.917Z,13.00
2019-05-14T18:53:38.418Z,12.90
2019-05-14T18:56:19.513Z,12.90
2019-05-14T18:58:39.027Z,12.90
2019-05-14T19:01:08.562Z,12.80
2019-05-14T19:03:39.583Z,12.70
2019-05-14T19:06:08.424Z,12.60
2019-05-14T19:08:41.871Z,12.60
2019-05-14T19:11:12.093Z,12.40
2019-05-14T19:13:41.093Z,12.40
2019-05-14T19:16:10.155Z,12.30
2019-05-14T19:18:39.151Z,12.00
2019-05-14T19:21:08.814Z,12.10
2019-05-14T19:23:38.612Z,12.10
2019-05-14T19:26:09.551Z,12.10
2019-05-14T19:28:39.096Z,12.10
2019-05-14T19:31:09.297Z,12.00
2019-05-14T19:33:40.155Z,12.00
2019-05-14T19:36:09.239Z,11.80
2019-05-14T19:38:38.931Z,11.80
2019-05-14T19:41:08.776Z,11.90
2019-05-14T19:43:38.249Z,11.80
2019-05-14T19:46:08.765Z,11.70
2019-05-14T19:48:38.204Z,11.70
2019-05-14T19:51:08.226Z,11.60
2019-05-14T19:53:39.176Z,11.60
2019-05-14T19:56:08.724Z,11.50
2019-05-14T19:58:38.389Z,11.50
2019-05-14T20:01:09.336Z,11.50
2019-05-14T20:03:38.452Z,11.30
2019-05-14T20:06:09.059Z,11.30
2019-05-14T20:08:38.684Z,11.40
2019-05-14T20:11:08.360Z,11.30
2019-05-14T20:13:39.152Z,11.30
2019-05-14T20:16:08.709Z,11.30
2019-05-14T20:18:38.492Z,11.30
2019-05-14T20:21:08.693Z,11.30
2019-05-14T20:23:38.750Z,11.30
2019-05-14T20:26:08.380Z,11.30
2019-05-14T20:28:39.004Z,11.20
2019-05-14T20:31:09.213Z,11.10
2019-05-14T20:33:37.046Z,11.10
2019-05-14T20:36:08.068Z,11.10
2019-05-14T20:38:38.838Z,11.10
2019-05-14T20:41:08.725Z,11.00
2019-05-14T20:43:38.481Z,11.00
2019-05-14T20:46:07.985Z,11.00
2019-05-14T20:48:39.151Z,11.00
2019-05-14T20:51:09.001Z,10.90
2019-05-14T20:53:39.714Z,10.90
2019-05-14T20:56:08.911Z,10.80
2019-05-14T20:58:38.881Z,10.80
2019-05-14T21:01:11.133Z,10.70
2019-05-14T21:03:39.150Z,10.80
2019-05-14T21:06:09.008Z,10.80
2019-05-14T21:08:38.191Z,10.80
2019-05-14T21:11:08.232Z,10.70
2019-05-14T21:13:37.633Z,10.80
2019-05-14T21:16:08.451Z,10.90
2019-05-14T21:18:40.837Z,10.90
2019-05-14T21:21:10.909Z,10.90
2019-05-14T21:23:38.638Z,10.90
2019-05-14T21:26:08.591Z,10.90
2019-05-14T21:28:39.218Z,10.80
2019-05-14T21:31:10.560Z,10.80
2019-05-14T21:33:39.426Z,10.70
2019-05-14T21:36:12.000Z,10.60
2019-05-14T21:38:41.015Z,10.60
2019-05-14T21:41:10.495Z,10.60
2019-05-14T21:43:39.334Z,10.50
2019-05-14T21:46:08.487Z,10.40
2019-05-14T21:48:38.777Z,10.40
2019-05-14T21:51:08.654Z,10.40
2019-05-14T21:53:38.646Z,10.40
2019-05-14T21:56:08.747Z,10.40
2019-05-14T21:58:38.762Z,10.40
2019-05-14T22:01:09.752Z,10.40
2019-05-14T22:03:40.273Z,10.30
2019-05-14T22:06:09.305Z,10.30
2019-05-14T22:08:39.295Z,10.30
2019-05-14T22:11:08.579Z,10.20
2019-05-14T22:13:38.117Z,10.20
2019-05-14T22:16:08.372Z,10.30
2019-05-14T22:18:38.928Z,10.20
2019-05-14T22:21:08.873Z,10.20
2019-05-14T22:23:38.721Z,10.10
2019-05-14T22:26:08.026Z,10.20
2019-05-14T22:28:37.219Z,10.20
2019-05-14T22:31:08.863Z,10.20
2019-05-14T22:33:38.238Z,10.10
2019-05-14T22:36:08.640Z,10.10
2019-05-14T22:38:38.973Z,10.10
2019-05-14T22:41:08.269Z,10.10
2019-05-14T22:43:38.854Z,10.00
2019-05-14T22:46:08.515Z,10.00
2019-05-14T22:48:37.513Z,10.00
2019-05-14T22:51:08.650Z,9.90
2019-05-14T22:53:38.952Z,9.90
2019-05-14T22:56:08.329Z,9.80
2019-05-14T22:58:38.231Z,9.80
2019-05-14T23:01:14.723Z,9.80
2019-05-14T23:03:39.599Z,9.70
2019-05-14T23:06:09.122Z,9.70
2019-05-14T23:08:39.157Z,9.70
2019-05-14T23:11:08.749Z,9.60
2019-05-14T23:13:39.246Z,9.50
2019-05-14T23:16:08.615Z,9.50
2019-05-14T23:18:37.993Z,9.40
2019-05-14T23:21:08.841Z,9.40
2019-05-14T23:23:39.278Z,9.40
2019-05-14T23:26:08.723Z,9.40
2019-05-14T23:28:44.437Z,9.40
2019-05-14T23:31:08.578Z,9.40
2019-05-14T23:33:38.919Z,9.30
2019-05-14T23:36:08.947Z,9.30
2019-05-14T23:38:39.403Z,9.30
2019-05-14T23:41:08.846Z,9.30
2019-05-14T23:43:39.061Z,9.20
2019-05-14T23:46:09.302Z,9.10
2019-05-14T23:48:39.259Z,9.10
2019-05-14T23:51:08.754Z,9.20
2019-05-14T23:53:39.260Z,9.10
2019-05-14T23:56:08.796Z,9.10
2019-05-14T23:58:37.925Z,9.10
